sensor_id;sensor_type;location;lat;lon;timestamp;temperature;humidity
14962;DHT22;56489;53.166;10.864;2022-10-31T00:01:09;9.10;99.90
14962;DHT22;56489;53.166;10.864;2022-10-31T00:03:37;9.20;99.90
14962;DHT22;56489;53.166;10.864;2022-10-31T00:06:03;9.20;99.90
14962;DHT22;56489;53.166;10.864;2022-10-31T00:08:30;9.20;99.90
14962;DHT22;56489;53.166;10.864;2022-10-31T00:10:57;9.20;99.90
14962;DHT22;56489;53.166;10.864;2022-10-31T00:13:24;9.20;99.90
14962;DHT22;56489;53.166;10.864;2022-10-31T00:15:51;9.20;99.90
14962;DHT22;56489;53.166;10.864;2022-10-31T00:18:18;9.20;99.90
14962;DHT22;56489;53.166;10.864;2022-10-31T00:20:45;9.20;99.90
14962;DHT22;56489;53.166;10.864;2022-10-31T00:23:11;9.20;99.90
14962;DHT22;56489;53.166;10.864;2022-10-31T00:25:39;9.20;99.90
14962;DHT22;56489;53.166;10.864;2022-10-31T00:28:07;9.20;99.90
14962;DHT22;56489;53.166;10.864;2022-10-31T00:30:35;9.20;99.90
14962;DHT22;56489;53.166;10.864;2022-10-31T00:33:03;9.20;99.90
14962;DHT22;56489;53.166;10.864;2022-10-31T00:35:31;9.20;99.90
14962;DHT22;56489;53.166;10.864;2022-10-31T00:37:59;9.20;99.90
14962;DHT22;56489;53.166;10.864;2022-10-31T00:40:26;9.20;99.90
14962;DHT22;56489;53.166;10.864;2022-10-31T00:42:53;9.10;99.90
14962;DHT22;56489;53.166;10.864;2022-10-31T00:45:20;9.20;99.90
14962;DHT22;56489;53.166;10.864;2022-10-31T00:47:46;9.20;99.90
14962;DHT22;56489;53.166;10.864;2022-10-31T00:50:13;9.20;99.90
14962;DHT22;56489;53.166;10.864;2022-10-31T00:52:40;9.20;99.90
14962;DHT22;56489;53.166;10.864;2022-10-31T00:55:07;9.20;99.90
14962;DHT22;56489;53.166;10.864;2022-10-31T00:57:34;9.20;99.90
14962;DHT22;56489;53.166;10.864;2022-10-31T01:00:00;9.20;99.90
14962;DHT22;56489;53.166;10.864;2022-10-31T01:02:27;9.20;99.90
14962;DHT22;56489;53.166;10.864;2022-10-31T01:04:55;9.20;99.90
14962;DHT22;56489;53.166;10.864;2022-10-31T01:07:21;9.10;99.90
14962;DHT22;56489;53.166;10.864;2022-10-31T01:09:48;9.20;99.90
14962;DHT22;56489;53.166;10.864;2022-10-31T01:12:15;9.10;99.90
14962;DHT22;56489;53.166;10.864;2022-10-31T01:14:45;9.10;99.90
14962;DHT22;56489;53.166;10.864;2022-10-31T01:17:12;9.10;99.90
14962;DHT22;56489;53.166;10.864;2022-10-31T01:19:39;9.10;99.90
14962;DHT22;56489;53.166;10.864;2022-10-31T01:22:06;9.10;99.90
14962;DHT22;56489;53.166;10.864;2022-10-31T01:24:33;9.00;99.90
14962;DHT22;56489;53.166;10.864;2022-10-31T01:27:00;9.00;99.90
14962;DHT22;56489;53.166;10.864;2022-10-31T01:29:27;8.90;99.90
14962;DHT22;56489;53.166;10.864;2022-10-31T01:31:53;8.90;99.90
14962;DHT22;56489;53.166;10.864;2022-10-31T01:34:20;8.90;99.90
14962;DHT22;56489;53.166;10.864;2022-10-31T01:36:47;8.90;99.90
14962;DHT22;56489;53.166;10.864;2022-10-31T01:39:18;8.90;99.90
14962;DHT22;56489;53.166;10.864;2022-10-31T01:41:51;8.90;99.90
14962;DHT22;56489;53.166;10.864;2022-10-31T01:46:58;8.90;99.90
14962;DHT22;56489;53.166;10.864;2022-10-31T01:52:01;8.80;99.90
14962;DHT22;56489;53.166;10.864;2022-10-31T01:54:34;8.80;99.90
14962;DHT22;56489;53.166;10.864;2022-10-31T01:57:05;8.80;99.90
14962;DHT22;56489;53.166;10.864;2022-10-31T01:59:36;8.80;99.90
14962;DHT22;56489;53.166;10.864;2022-10-31T02:02:06;8.80;99.90
14962;DHT22;56489;53.166;10.864;2022-10-31T02:04:34;8.80;99.90
14962;DHT22;56489;53.166;10.864;2022-10-31T02:07:05;8.80;99.90
14962;DHT22;56489;53.166;10.864;2022-10-31T02:09:34;8.70;99.90
14962;DHT22;56489;53.166;10.864;2022-10-31T02:12:02;8.70;99.90
14962;DHT22;56489;53.166;10.864;2022-10-31T02:14:30;8.70;99.90
14962;DHT22;56489;53.166;10.864;2022-10-31T02:16:58;8.70;99.90
14962;DHT22;56489;53.166;10.864;2022-10-31T02:22:20;8.70;99.90
14962;DHT22;56489;53.166;10.864;2022-10-31T02:30:22;8.70;99.90
14962;DHT22;56489;53.166;10.864;2022-10-31T02:36:01;8.70;99.90
14962;DHT22;56489;53.166;10.864;2022-10-31T02:38:34;8.70;99.90
14962;DHT22;56489;53.166;10.864;2022-10-31T02:41:29;8.80;99.90
14962;DHT22;56489;53.166;10.864;2022-10-31T02:44:18;8.80;99.90
14962;DHT22;56489;53.166;10.864;2022-10-31T02:46:55;8.80;99.90
14962;DHT22;56489;53.166;10.864;2022-10-31T02:51:56;8.70;99.90
14962;DHT22;56489;53.166;10.864;2022-10-31T02:54:26;8.70;99.90
14962;DHT22;56489;53.166;10.864;2022-10-31T02:57:13;8.60;99.90
14962;DHT22;56489;53.166;10.864;2022-10-31T02:59:46;8.60;99.90
14962;DHT22;56489;53.166;10.864;2022-10-31T03:15:45;8.60;99.90
14962;DHT22;56489;53.166;10.864;2022-10-31T03:18:17;8.60;99.90
14962;DHT22;56489;53.166;10.864;2022-10-31T03:20:53;8.60;99.90
14962;DHT22;56489;53.166;10.864;2022-10-31T03:23:23;8.70;99.90
14962;DHT22;56489;53.166;10.864;2022-10-31T03:25:53;8.70;99.90
14962;DHT22;56489;53.166;10.864;2022-10-31T03:28:28;8.80;99.90
14962;DHT22;56489;53.166;10.864;2022-10-31T03:30:57;8.90;99.90
14962;DHT22;56489;53.166;10.864;2022-10-31T03:33:32;8.90;99.90
14962;DHT22;56489;53.166;10.864;2022-10-31T03:36:02;9.00;99.90
14962;DHT22;56489;53.166;10.864;2022-10-31T03:38:31;9.10;99.90
14962;DHT22;56489;53.166;10.864;2022-10-31T03:41:00;9.10;99.90
14962;DHT22;56489;53.166;10.864;2022-10-31T03:43:33;9.10;99.90
14962;DHT22;56489;53.166;10.864;2022-10-31T03:46:03;9.10;99.90
14962;DHT22;56489;53.166;10.864;2022-10-31T03:48:31;9.10;99.90
14962;DHT22;56489;53.166;10.864;2022-10-31T03:53:51;9.30;99.90
14962;DHT22;56489;53.166;10.864;2022-10-31T03:56:21;9.40;99.90
14962;DHT22;56489;53.166;10.864;2022-10-31T03:59:02;9.40;99.90
14962;DHT22;56489;53.166;10.864;2022-10-31T04:01:33;9.50;99.90
14962;DHT22;56489;53.166;10.864;2022-10-31T04:04:02;9.60;99.90
14962;DHT22;56489;53.166;10.864;2022-10-31T04:06:30;9.60;99.90
14962;DHT22;56489;53.166;10.864;2022-10-31T04:09:02;9.50;99.90
14962;DHT22;56489;53.166;10.864;2022-10-31T04:11:33;9.40;99.90
14962;DHT22;56489;53.166;10.864;2022-10-31T04:14:02;9.40;99.90
14962;DHT22;56489;53.166;10.864;2022-10-31T04:16:30;9.40;99.90
14962;DHT22;56489;53.166;10.864;2022-10-31T04:18:57;9.30;99.90
14962;DHT22;56489;53.166;10.864;2022-10-31T04:21:28;9.40;99.90
14962;DHT22;56489;53.166;10.864;2022-10-31T04:23:57;9.40;99.90
14962;DHT22;56489;53.166;10.864;2022-10-31T04:26:24;9.50;99.90
14962;DHT22;56489;53.166;10.864;2022-10-31T04:28:51;9.50;99.90
14962;DHT22;56489;53.166;10.864;2022-10-31T04:31:18;9.50;99.90
14962;DHT22;56489;53.166;10.864;2022-10-31T04:33:44;9.40;99.90
14962;DHT22;56489;53.166;10.864;2022-10-31T04:36:11;9.30;99.90
14962;DHT22;56489;53.166;10.864;2022-10-31T04:38:39;9.20;99.90
14962;DHT22;56489;53.166;10.864;2022-10-31T04:41:05;9.20;99.90
14962;DHT22;56489;53.166;10.864;2022-10-31T04:43:33;9.20;99.90
14962;DHT22;56489;53.166;10.864;2022-10-31T04:45:59;9.30;99.90
14962;DHT22;56489;53.166;10.864;2022-10-31T04:48:26;9.30;99.90
14962;DHT22;56489;53.166;10.864;2022-10-31T04:50:58;9.50;99.90
14962;DHT22;56489;53.166;10.864;2022-10-31T04:53:25;9.70;99.90
14962;DHT22;56489;53.166;10.864;2022-10-31T04:55:52;9.80;99.90
14962;DHT22;56489;53.166;10.864;2022-10-31T04:58:18;9.90;99.90
14962;DHT22;56489;53.166;10.864;2022-10-31T05:00:45;9.90;99.90
14962;DHT22;56489;53.166;10.864;2022-10-31T05:03:12;9.80;99.90
14962;DHT22;56489;53.166;10.864;2022-10-31T05:05:39;9.60;99.90
14962;DHT22;56489;53.166;10.864;2022-10-31T05:08:06;9.50;99.90
14962;DHT22;56489;53.166;10.864;2022-10-31T05:10:32;9.40;99.90
14962;DHT22;56489;53.166;10.864;2022-10-31T05:13:01;9.20;99.90
14962;DHT22;56489;53.166;10.864;2022-10-31T05:15:29;9.10;99.90
14962;DHT22;56489;53.166;10.864;2022-10-31T05:17:57;9.10;99.90
14962;DHT22;56489;53.166;10.864;2022-10-31T05:20:27;9.00;99.90
14962;DHT22;56489;53.166;10.864;2022-10-31T05:22:55;8.90;99.90
14962;DHT22;56489;53.166;10.864;2022-10-31T05:25:25;8.90;99.90
14962;DHT22;56489;53.166;10.864;2022-10-31T05:27:53;8.90;99.90
14962;DHT22;56489;53.166;10.864;2022-10-31T05:30:23;8.90;99.90
14962;DHT22;56489;53.166;10.864;2022-10-31T05:32:51;8.90;99.90
14962;DHT22;56489;53.166;10.864;2022-10-31T05:35:23;8.90;99.90
14962;DHT22;56489;53.166;10.864;2022-10-31T05:37:51;9.00;99.90
14962;DHT22;56489;53.166;10.864;2022-10-31T05:40:19;9.10;99.90
14962;DHT22;56489;53.166;10.864;2022-10-31T05:42:47;9.10;99.90
14962;DHT22;56489;53.166;10.864;2022-10-31T05:45:16;9.10;99.90
14962;DHT22;56489;53.166;10.864;2022-10-31T05:47:59;9.10;99.90
14962;DHT22;56489;53.166;10.864;2022-10-31T05:50:29;9.20;99.90
14962;DHT22;56489;53.166;10.864;2022-10-31T05:53:03;9.20;99.90
14962;DHT22;56489;53.166;10.864;2022-10-31T05:55:31;9.10;99.90
14962;DHT22;56489;53.166;10.864;2022-10-31T05:57:58;9.10;99.90
14962;DHT22;56489;53.166;10.864;2022-10-31T06:00:26;9.10;99.90
14962;DHT22;56489;53.166;10.864;2022-10-31T06:03:04;9.00;99.90
14962;DHT22;56489;53.166;10.864;2022-10-31T06:05:31;9.00;99.90
14962;DHT22;56489;53.166;10.864;2022-10-31T06:07:59;9.00;99.90
14962;DHT22;56489;53.166;10.864;2022-10-31T06:10:26;8.90;99.90
14962;DHT22;56489;53.166;10.864;2022-10-31T06:12:54;8.90;99.90
14962;DHT22;56489;53.166;10.864;2022-10-31T06:15:20;8.90;99.90
14962;DHT22;56489;53.166;10.864;2022-10-31T06:18:01;8.90;99.90
14962;DHT22;56489;53.166;10.864;2022-10-31T06:20:30;8.90;99.90
14962;DHT22;56489;53.166;10.864;2022-10-31T06:22:56;8.90;99.90
14962;DHT22;56489;53.166;10.864;2022-10-31T06:25:24;9.00;99.90
14962;DHT22;56489;53.166;10.864;2022-10-31T06:27:51;9.00;99.90
14962;DHT22;56489;53.166;10.864;2022-10-31T06:30:18;9.10;99.90
14962;DHT22;56489;53.166;10.864;2022-10-31T06:32:45;9.10;99.90
14962;DHT22;56489;53.166;10.864;2022-10-31T06:35:12;9.20;99.90
14962;DHT22;56489;53.166;10.864;2022-10-31T06:37:39;9.30;99.90
14962;DHT22;56489;53.166;10.864;2022-10-31T06:40:06;9.40;99.90
14962;DHT22;56489;53.166;10.864;2022-10-31T06:42:33;9.50;99.90
14962;DHT22;56489;53.166;10.864;2022-10-31T06:45:00;9.60;99.90
14962;DHT22;56489;53.166;10.864;2022-10-31T06:47:26;9.70;99.90
14962;DHT22;56489;53.166;10.864;2022-10-31T06:49:55;9.80;99.90
14962;DHT22;56489;53.166;10.864;2022-10-31T06:52:22;9.80;99.90
14962;DHT22;56489;53.166;10.864;2022-10-31T06:54:49;10.00;99.90
14962;DHT22;56489;53.166;10.864;2022-10-31T06:57:16;10.00;99.90
14962;DHT22;56489;53.166;10.864;2022-10-31T06:59:43;10.20;99.90
14962;DHT22;56489;53.166;10.864;2022-10-31T07:02:10;10.30;99.90
14962;DHT22;56489;53.166;10.864;2022-10-31T07:04:37;10.50;99.90
14962;DHT22;56489;53.166;10.864;2022-10-31T07:07:04;10.60;99.90
14962;DHT22;56489;53.166;10.864;2022-10-31T07:09:30;10.70;99.90
14962;DHT22;56489;53.166;10.864;2022-10-31T07:11:57;10.80;99.90
14962;DHT22;56489;53.166;10.864;2022-10-31T07:14:24;10.90;99.90
14962;DHT22;56489;53.166;10.864;2022-10-31T07:16:51;11.20;99.90
14962;DHT22;56489;53.166;10.864;2022-10-31T07:19:18;11.50;99.90
14962;DHT22;56489;53.166;10.864;2022-10-31T07:21:44;11.70;99.90
14962;DHT22;56489;53.166;10.864;2022-10-31T07:24:12;11.90;99.90
14962;DHT22;56489;53.166;10.864;2022-10-31T07:26:38;12.10;99.90
14962;DHT22;56489;53.166;10.864;2022-10-31T07:29:05;12.20;99.90
14962;DHT22;56489;53.166;10.864;2022-10-31T07:31:31;12.40;99.90
14962;DHT22;56489;53.166;10.864;2022-10-31T07:33:58;12.50;99.90
14962;DHT22;56489;53.166;10.864;2022-10-31T07:36:25;12.50;99.90
14962;DHT22;56489;53.166;10.864;2022-10-31T07:38:51;12.60;99.90
14962;DHT22;56489;53.166;10.864;2022-10-31T07:41:18;12.70;99.90
14962;DHT22;56489;53.166;10.864;2022-10-31T07:43:45;12.70;99.90
14962;DHT22;56489;53.166;10.864;2022-10-31T07:46:12;12.80;99.90
14962;DHT22;56489;53.166;10.864;2022-10-31T07:48:38;12.90;99.90
14962;DHT22;56489;53.166;10.864;2022-10-31T07:51:05;12.90;99.90
14962;DHT22;56489;53.166;10.864;2022-10-31T07:53:33;13.00;99.90
14962;DHT22;56489;53.166;10.864;2022-10-31T07:56:00;13.10;99.90
14962;DHT22;56489;53.166;10.864;2022-10-31T07:58:27;13.20;99.90
14962;DHT22;56489;53.166;10.864;2022-10-31T08:00:53;13.20;99.90
14962;DHT22;56489;53.166;10.864;2022-10-31T08:03:20;13.30;99.90
14962;DHT22;56489;53.166;10.864;2022-10-31T08:05:47;13.30;99.90
14962;DHT22;56489;53.166;10.864;2022-10-31T08:08:14;13.40;99.90
14962;DHT22;56489;53.166;10.864;2022-10-31T08:10:41;13.40;99.90
14962;DHT22;56489;53.166;10.864;2022-10-31T08:13:10;13.40;99.90
14962;DHT22;56489;53.166;10.864;2022-10-31T08:15:38;13.40;99.90
14962;DHT22;56489;53.166;10.864;2022-10-31T08:18:14;13.40;99.90
14962;DHT22;56489;53.166;10.864;2022-10-31T08:20:41;13.40;99.90
14962;DHT22;56489;53.166;10.864;2022-10-31T08:23:09;13.50;99.90
14962;DHT22;56489;53.166;10.864;2022-10-31T08:25:36;13.40;99.90
14962;DHT22;56489;53.166;10.864;2022-10-31T08:28:05;13.50;99.90
14962;DHT22;56489;53.166;10.864;2022-10-31T08:30:35;13.50;99.90
14962;DHT22;56489;53.166;10.864;2022-10-31T08:33:11;13.60;99.90
14962;DHT22;56489;53.166;10.864;2022-10-31T08:35:38;13.60;99.90
14962;DHT22;56489;53.166;10.864;2022-10-31T08:38:05;13.70;99.90
14962;DHT22;56489;53.166;10.864;2022-10-31T08:40:33;13.70;99.90
14962;DHT22;56489;53.166;10.864;2022-10-31T08:43:13;13.70;99.90
14962;DHT22;56489;53.166;10.864;2022-10-31T08:45:40;13.70;99.90
14962;DHT22;56489;53.166;10.864;2022-10-31T08:48:12;13.70;99.90
14962;DHT22;56489;53.166;10.864;2022-10-31T08:50:40;13.70;99.90
14962;DHT22;56489;53.166;10.864;2022-10-31T08:53:13;13.70;99.90
14962;DHT22;56489;53.166;10.864;2022-10-31T08:55:41;13.80;99.90
14962;DHT22;56489;53.166;10.864;2022-10-31T08:58:14;13.80;99.90
14962;DHT22;56489;53.166;10.864;2022-10-31T09:00:41;13.80;99.90
14962;DHT22;56489;53.166;10.864;2022-10-31T09:03:16;13.90;99.90
14962;DHT22;56489;53.166;10.864;2022-10-31T09:05:43;13.90;99.90
14962;DHT22;56489;53.166;10.864;2022-10-31T09:08:11;13.90;99.90
14962;DHT22;56489;53.166;10.864;2022-10-31T09:10:43;14.00;99.90
14962;DHT22;56489;53.166;10.864;2022-10-31T09:13:18;14.00;99.90
14962;DHT22;56489;53.166;10.864;2022-10-31T09:15:46;14.10;99.90
14962;DHT22;56489;53.166;10.864;2022-10-31T09:18:15;14.10;99.90
14962;DHT22;56489;53.166;10.864;2022-10-31T09:20:43;14.10;99.90
14962;DHT22;56489;53.166;10.864;2022-10-31T09:23:13;14.20;99.90
14962;DHT22;56489;53.166;10.864;2022-10-31T09:25:40;14.20;99.90
14962;DHT22;56489;53.166;10.864;2022-10-31T09:28:15;14.30;99.90
14962;DHT22;56489;53.166;10.864;2022-10-31T09:30:42;14.40;99.90
14962;DHT22;56489;53.166;10.864;2022-10-31T09:33:10;14.40;99.90
14962;DHT22;56489;53.166;10.864;2022-10-31T09:35:38;14.50;99.90
14962;DHT22;56489;53.166;10.864;2022-10-31T09:38:10;14.50;99.90
14962;DHT22;56489;53.166;10.864;2022-10-31T09:40:42;14.50;99.90
14962;DHT22;56489;53.166;10.864;2022-10-31T09:46:00;14.60;99.90
14962;DHT22;56489;53.166;10.864;2022-10-31T09:51:14;14.70;99.90
14962;DHT22;56489;53.166;10.864;2022-10-31T09:54:00;14.80;99.90
14962;DHT22;56489;53.166;10.864;2022-10-31T09:56:30;14.80;99.90
14962;DHT22;56489;53.166;10.864;2022-10-31T09:58:59;14.80;99.90
14962;DHT22;56489;53.166;10.864;2022-10-31T10:01:48;14.80;99.90
14962;DHT22;56489;53.166;10.864;2022-10-31T10:06:54;14.90;99.90
14962;DHT22;56489;53.166;10.864;2022-10-31T10:09:25;14.80;99.90
14962;DHT22;56489;53.166;10.864;2022-10-31T10:14:56;14.80;99.90
14962;DHT22;56489;53.166;10.864;2022-10-31T10:17:36;14.90;99.90
14962;DHT22;56489;53.166;10.864;2022-10-31T10:20:25;14.90;99.90
14962;DHT22;56489;53.166;10.864;2022-10-31T10:25:40;15.00;99.90
14962;DHT22;56489;53.166;10.864;2022-10-31T10:30:50;15.00;99.90
14962;DHT22;56489;53.166;10.864;2022-10-31T10:33:24;15.10;99.90
14962;DHT22;56489;53.166;10.864;2022-10-31T10:36:04;15.20;99.90
14962;DHT22;56489;53.166;10.864;2022-10-31T10:41:22;15.20;99.90
14962;DHT22;56489;53.166;10.864;2022-10-31T10:43:51;15.30;99.90
14962;DHT22;56489;53.166;10.864;2022-10-31T10:46:19;15.30;99.90
14962;DHT22;56489;53.166;10.864;2022-10-31T10:58:07;15.20;99.90
14962;DHT22;56489;53.166;10.864;2022-10-31T11:00:44;15.20;99.90
14962;DHT22;56489;53.166;10.864;2022-10-31T11:03:17;15.20;99.90
14962;DHT22;56489;53.166;10.864;2022-10-31T11:13:31;15.20;99.90
14962;DHT22;56489;53.166;10.864;2022-10-31T11:16:02;15.20;99.90
14962;DHT22;56489;53.166;10.864;2022-10-31T11:18:34;15.30;99.90
14962;DHT22;56489;53.166;10.864;2022-10-31T11:21:02;15.30;99.90
14962;DHT22;56489;53.166;10.864;2022-10-31T11:23:31;15.30;99.90
14962;DHT22;56489;53.166;10.864;2022-10-31T11:28:27;15.40;99.90
14962;DHT22;56489;53.166;10.864;2022-10-31T11:30:57;15.40;99.90
14962;DHT22;56489;53.166;10.864;2022-10-31T11:33:32;15.50;99.90
14962;DHT22;56489;53.166;10.864;2022-10-31T11:36:01;15.50;99.90
14962;DHT22;56489;53.166;10.864;2022-10-31T11:38:35;15.60;99.90
14962;DHT22;56489;53.166;10.864;2022-10-31T11:41:13;15.70;99.90
14962;DHT22;56489;53.166;10.864;2022-10-31T11:43:50;15.70;99.90
14962;DHT22;56489;53.166;10.864;2022-10-31T11:46:33;15.70;99.90
14962;DHT22;56489;53.166;10.864;2022-10-31T11:49:01;15.70;99.90
14962;DHT22;56489;53.166;10.864;2022-10-31T11:51:33;15.70;99.90
14962;DHT22;56489;53.166;10.864;2022-10-31T11:54:02;15.60;99.90
14962;DHT22;56489;53.166;10.864;2022-10-31T11:56:40;15.70;99.90
14962;DHT22;56489;53.166;10.864;2022-10-31T11:59:26;15.70;99.90
14962;DHT22;56489;53.166;10.864;2022-10-31T12:01:54;15.70;99.90
14962;DHT22;56489;53.166;10.864;2022-10-31T12:04:43;15.70;99.90
14962;DHT22;56489;53.166;10.864;2022-10-31T12:07:10;15.70;99.90
14962;DHT22;56489;53.166;10.864;2022-10-31T12:09:38;15.60;99.90
14962;DHT22;56489;53.166;10.864;2022-10-31T12:14:56;15.60;99.90
14962;DHT22;56489;53.166;10.864;2022-10-31T12:18:22;15.60;99.90
14962;DHT22;56489;53.166;10.864;2022-10-31T12:23:29;15.70;99.90
14962;DHT22;56489;53.166;10.864;2022-10-31T12:29:18;15.70;99.90
14962;DHT22;56489;53.166;10.864;2022-10-31T12:34:51;15.60;99.90
14962;DHT22;56489;53.166;10.864;2022-10-31T12:47:12;15.40;99.90
14962;DHT22;56489;53.166;10.864;2022-10-31T12:52:29;15.30;99.90
14962;DHT22;56489;53.166;10.864;2022-10-31T12:57:52;15.40;99.90
14962;DHT22;56489;53.166;10.864;2022-10-31T13:00:20;15.40;99.90
14962;DHT22;56489;53.166;10.864;2022-10-31T13:05:36;15.50;99.90
14962;DHT22;56489;53.166;10.864;2022-10-31T13:08:14;15.50;99.90
14962;DHT22;56489;53.166;10.864;2022-10-31T13:11:02;15.60;99.90
14962;DHT22;56489;53.166;10.864;2022-10-31T13:13:37;15.60;99.90
14962;DHT22;56489;53.166;10.864;2022-10-31T13:16:17;15.60;99.90
14962;DHT22;56489;53.166;10.864;2022-10-31T13:18:46;15.60;99.90
14962;DHT22;56489;53.166;10.864;2022-10-31T13:21:23;15.50;99.90
14962;DHT22;56489;53.166;10.864;2022-10-31T13:23:51;15.40;99.90
14962;DHT22;56489;53.166;10.864;2022-10-31T13:26:40;15.40;99.90
14962;DHT22;56489;53.166;10.864;2022-10-31T13:29:22;15.30;99.90
14962;DHT22;56489;53.166;10.864;2022-10-31T13:31:55;15.30;99.90
14962;DHT22;56489;53.166;10.864;2022-10-31T13:34:23;15.20;99.90
14962;DHT22;56489;53.166;10.864;2022-10-31T13:45:51;15.20;99.90
14962;DHT22;56489;53.166;10.864;2022-10-31T13:48:35;15.30;99.90
14962;DHT22;56489;53.166;10.864;2022-10-31T13:51:08;15.30;99.90
14962;DHT22;56489;53.166;10.864;2022-10-31T13:58:35;15.40;99.90
14962;DHT22;56489;53.166;10.864;2022-10-31T14:01:21;15.40;99.90
14962;DHT22;56489;53.166;10.864;2022-10-31T14:04:13;15.40;99.90
14962;DHT22;56489;53.166;10.864;2022-10-31T14:07:09;15.50;99.90
14962;DHT22;56489;53.166;10.864;2022-10-31T14:09:50;15.40;99.90
14962;DHT22;56489;53.166;10.864;2022-10-31T14:15:16;15.40;99.90
14962;DHT22;56489;53.166;10.864;2022-10-31T14:17:54;15.30;99.90
14962;DHT22;56489;53.166;10.864;2022-10-31T14:20:44;15.20;99.90
14962;DHT22;56489;53.166;10.864;2022-10-31T14:28:36;15.00;99.90
14962;DHT22;56489;53.166;10.864;2022-10-31T14:31:30;15.00;99.90
14962;DHT22;56489;53.166;10.864;2022-10-31T14:36:46;14.90;99.90
14962;DHT22;56489;53.166;10.864;2022-10-31T14:42:34;14.80;99.90
14962;DHT22;56489;53.166;10.864;2022-10-31T14:50:58;14.60;99.90
14962;DHT22;56489;53.166;10.864;2022-10-31T14:53:50;14.50;99.90
14962;DHT22;56489;53.166;10.864;2022-10-31T14:56:30;14.40;99.90
14962;DHT22;56489;53.166;10.864;2022-10-31T14:59:09;14.40;99.90
14962;DHT22;56489;53.166;10.864;2022-10-31T15:01:38;14.30;99.90
14962;DHT22;56489;53.166;10.864;2022-10-31T15:04:22;14.30;99.90
14962;DHT22;56489;53.166;10.864;2022-10-31T15:07:05;14.20;99.90
14962;DHT22;56489;53.166;10.864;2022-10-31T15:09:35;14.10;99.90
14962;DHT22;56489;53.166;10.864;2022-10-31T15:12:23;14.10;99.90
14962;DHT22;56489;53.166;10.864;2022-10-31T15:14:50;14.00;99.90
14962;DHT22;56489;53.166;10.864;2022-10-31T15:17:17;14.00;99.90
14962;DHT22;56489;53.166;10.864;2022-10-31T15:19:44;13.90;99.90
14962;DHT22;56489;53.166;10.864;2022-10-31T15:22:16;13.90;99.90
14962;DHT22;56489;53.166;10.864;2022-10-31T15:24:44;13.80;99.90
14962;DHT22;56489;53.166;10.864;2022-10-31T15:27:16;13.80;99.90
14962;DHT22;56489;53.166;10.864;2022-10-31T15:29:50;13.80;99.90
14962;DHT22;56489;53.166;10.864;2022-10-31T15:32:25;13.80;99.90
14962;DHT22;56489;53.166;10.864;2022-10-31T15:34:54;13.80;99.90
14962;DHT22;56489;53.166;10.864;2022-10-31T15:37:24;13.70;99.90
14962;DHT22;56489;53.166;10.864;2022-10-31T15:39:51;13.70;99.90
14962;DHT22;56489;53.166;10.864;2022-10-31T15:44:51;13.70;99.90
14962;DHT22;56489;53.166;10.864;2022-10-31T15:47:21;13.60;99.90
14962;DHT22;56489;53.166;10.864;2022-10-31T15:49:51;13.50;99.90
14962;DHT22;56489;53.166;10.864;2022-10-31T15:55:04;13.40;99.90
14962;DHT22;56489;53.166;10.864;2022-10-31T15:57:33;13.50;99.90
14962;DHT22;56489;53.166;10.864;2022-10-31T16:00:00;13.40;99.90
14962;DHT22;56489;53.166;10.864;2022-10-31T16:02:27;13.40;99.90
14962;DHT22;56489;53.166;10.864;2022-10-31T16:04:57;13.30;99.90
14962;DHT22;56489;53.166;10.864;2022-10-31T16:07:25;13.20;99.90
14962;DHT22;56489;53.166;10.864;2022-10-31T16:09:59;13.30;99.90
14962;DHT22;56489;53.166;10.864;2022-10-31T16:12:35;13.30;99.90
14962;DHT22;56489;53.166;10.864;2022-10-31T16:15:04;13.20;99.90
14962;DHT22;56489;53.166;10.864;2022-10-31T16:17:31;13.20;99.90
14962;DHT22;56489;53.166;10.864;2022-10-31T16:20:01;13.10;99.90
14962;DHT22;56489;53.166;10.864;2022-10-31T16:22:36;13.10;99.90
14962;DHT22;56489;53.166;10.864;2022-10-31T16:25:12;13.10;99.90
14962;DHT22;56489;53.166;10.864;2022-10-31T16:27:47;13.10;99.90
14962;DHT22;56489;53.166;10.864;2022-10-31T16:30:38;13.00;99.90
14962;DHT22;56489;53.166;10.864;2022-10-31T16:33:35;13.00;99.90
14962;DHT22;56489;53.166;10.864;2022-10-31T16:36:28;13.00;99.90
14962;DHT22;56489;53.166;10.864;2022-10-31T16:39:01;13.00;99.90
14962;DHT22;56489;53.166;10.864;2022-10-31T16:41:28;12.90;99.90
14962;DHT22;56489;53.166;10.864;2022-10-31T16:43:54;12.90;99.90
14962;DHT22;56489;53.166;10.864;2022-10-31T16:46:24;13.00;99.90
14962;DHT22;56489;53.166;10.864;2022-10-31T16:48:51;12.90;99.90
14962;DHT22;56489;53.166;10.864;2022-10-31T16:51:19;12.90;99.90
14962;DHT22;56489;53.166;10.864;2022-10-31T16:53:45;12.80;99.90
14962;DHT22;56489;53.166;10.864;2022-10-31T16:56:17;12.80;99.90
14962;DHT22;56489;53.166;10.864;2022-10-31T16:58:44;12.70;99.90
14962;DHT22;56489;53.166;10.864;2022-10-31T17:01:12;12.70;99.90
14962;DHT22;56489;53.166;10.864;2022-10-31T17:03:39;12.70;99.90
14962;DHT22;56489;53.166;10.864;2022-10-31T17:06:13;12.70;99.90
14962;DHT22;56489;53.166;10.864;2022-10-31T17:08:40;12.60;99.90
14962;DHT22;56489;53.166;10.864;2022-10-31T17:11:17;12.60;99.90
14962;DHT22;56489;53.166;10.864;2022-10-31T17:13:45;12.60;99.90
14962;DHT22;56489;53.166;10.864;2022-10-31T17:16:13;12.60;99.90
14962;DHT22;56489;53.166;10.864;2022-10-31T17:18:40;12.60;99.90
14962;DHT22;56489;53.166;10.864;2022-10-31T17:21:17;12.50;99.90
14962;DHT22;56489;53.166;10.864;2022-10-31T17:23:45;12.50;99.90
14962;DHT22;56489;53.166;10.864;2022-10-31T17:26:12;12.50;99.90
14962;DHT22;56489;53.166;10.864;2022-10-31T17:28:39;12.50;99.90
14962;DHT22;56489;53.166;10.864;2022-10-31T17:31:08;12.50;99.90
14962;DHT22;56489;53.166;10.864;2022-10-31T17:33:38;12.50;99.90
14962;DHT22;56489;53.166;10.864;2022-10-31T17:36:05;12.40;99.90
14962;DHT22;56489;53.166;10.864;2022-10-31T17:38:32;12.40;99.90
14962;DHT22;56489;53.166;10.864;2022-10-31T17:41:04;12.40;99.90
14962;DHT22;56489;53.166;10.864;2022-10-31T17:43:36;12.50;99.90
14962;DHT22;56489;53.166;10.864;2022-10-31T17:46:03;12.50;99.90
14962;DHT22;56489;53.166;10.864;2022-10-31T17:48:32;12.50;99.90
14962;DHT22;56489;53.166;10.864;2022-10-31T17:51:00;12.50;99.90
14962;DHT22;56489;53.166;10.864;2022-10-31T17:53:32;12.50;99.90
14962;DHT22;56489;53.166;10.864;2022-10-31T17:56:00;12.50;99.90
14962;DHT22;56489;53.166;10.864;2022-10-31T17:58:27;12.50;99.90
14962;DHT22;56489;53.166;10.864;2022-10-31T18:00:54;12.50;99.90
14962;DHT22;56489;53.166;10.864;2022-10-31T18:03:21;12.50;99.90
14962;DHT22;56489;53.166;10.864;2022-10-31T18:05:56;12.50;99.90
14962;DHT22;56489;53.166;10.864;2022-10-31T18:08:28;12.50;99.90